createdAt,value
2018-06-16T00:00:07.479Z,17.49
2018-06-16T00:01:17.649Z,17.54
2018-06-16T00:02:27.823Z,17.58
2018-06-16T00:03:38.217Z,17.55
2018-06-16T00:04:48.418Z,17.61
2018-06-16T00:05:58.577Z,17.61
2018-06-16T00:07:08.822Z,17.57
2018-06-16T00:08:18.986Z,17.65
2018-06-16T00:09:29.179Z,17.64
2018-06-16T00:10:39.350Z,17.62
2018-06-16T00:11:49.560Z,17.6
2018-06-16T00:12:59.562Z,17.64
2018-06-16T00:14:09.728Z,17.61
2018-06-16T00:15:19.911Z,17.58
2018-06-16T00:16:30.059Z,17.6
2018-06-16T00:17:40.195Z,17.64
2018-06-16T00:18:50.406Z,17.55
2018-06-16T00:20:00.571Z,17.54
2018-06-16T00:21:10.929Z,17.57
2018-06-16T00:22:21.113Z,17.61
2018-06-16T00:23:31.294Z,17.62
2018-06-16T00:24:41.627Z,17.52
2018-06-16T00:25:51.411Z,17.54
2018-06-16T00:27:01.772Z,17.54
2018-06-16T00:28:11.938Z,17.55
2018-06-16T00:29:22.095Z,17.55
2018-06-16T00:30:32.256Z,17.54
2018-06-16T00:31:42.411Z,17.52
2018-06-16T00:32:52.654Z,17.52
2018-06-16T00:34:02.832Z,17.42
2018-06-16T00:35:13.042Z,17.43
2018-06-16T00:36:23.182Z,17.46
2018-06-16T00:37:33.369Z,17.47
2018-06-16T00:38:43.631Z,17.46
2018-06-16T00:39:53.524Z,17.46
2018-06-16T00:41:03.896Z,17.45
2018-06-16T00:42:14.101Z,17.42
2018-06-16T00:43:24.279Z,17.42
2018-06-16T00:44:34.443Z,17.4
2018-06-16T00:45:44.686Z,17.39
2018-06-16T00:46:54.827Z,17.23
2018-06-16T00:48:05.066Z,17.23
2018-06-16T00:49:15.250Z,17.35
2018-06-16T00:50:25.674Z,17.24
2018-06-16T00:51:35.809Z,17.19
2018-06-16T00:52:45.970Z,17.23
2018-06-16T00:53:56.280Z,17.17
2018-06-16T00:55:06.455Z,17.19
2018-06-16T00:56:16.624Z,17.17
2018-06-16T00:57:26.826Z,17.19
2018-06-16T00:58:37.048Z,17.12
2018-06-16T00:59:47.268Z,17.17
2018-06-16T01:00:57.440Z,17.19
2018-06-16T01:02:08.113Z,17.19
2018-06-16T01:03:18.009Z,17.14
2018-06-16T01:04:28.288Z,17.11
2018-06-16T01:05:38.469Z,17.06
2018-06-16T01:06:48.643Z,17.06
2018-06-16T01:07:58.868Z,17.06
2018-06-16T01:09:09.111Z,17.14
2018-06-16T01:10:19.334Z,17.05
2018-06-16T01:11:29.822Z,17.02
2018-06-16T01:12:40.207Z,17.09
2018-06-16T01:13:50.601Z,17.08
2018-06-16T01:15:00.819Z,17.12
2018-06-16T01:16:10.962Z,17.09
2018-06-16T01:17:21.235Z,17.06
2018-06-16T01:18:31.454Z,17.06
2018-06-16T01:19:41.330Z,17.06
2018-06-16T01:20:51.683Z,17.08
2018-06-16T01:22:01.996Z,17.05
2018-06-16T01:23:12.159Z,17.08
2018-06-16T01:24:22.356Z,17.06
2018-06-16T01:25:32.571Z,17.06
2018-06-16T01:26:43.708Z,17.11
2018-06-16T01:27:53.874Z,17.12
2018-06-16T01:29:04.086Z,17.14
2018-06-16T01:30:14.231Z,17.17
2018-06-16T01:31:24.376Z,17.2
2018-06-16T01:32:34.510Z,17.17
2018-06-16T01:33:44.672Z,17.23
2018-06-16T01:34:54.860Z,17.19
2018-06-16T01:36:05.119Z,17.23
2018-06-16T01:37:15.374Z,17.27
2018-06-16T01:38:25.864Z,17.19
2018-06-16T01:39:35.789Z,17.11
2018-06-16T01:40:46.045Z,17.27
2018-06-16T01:41:56.201Z,17.12
2018-06-16T01:43:06.565Z,17.17
2018-06-16T01:44:16.722Z,17.16
2018-06-16T01:45:26.959Z,17.21
2018-06-16T01:46:37.131Z,17.16
2018-06-16T01:47:47.434Z,17.14
2018-06-16T01:48:57.800Z,17.12
2018-06-16T01:50:07.975Z,17.08
2018-06-16T01:51:18.146Z,17.06
2018-06-16T01:52:28.299Z,17.04
2018-06-16T01:53:38.447Z,17.09
2018-06-16T01:54:48.831Z,17.05
2018-06-16T01:55:59.012Z,17.06
2018-06-16T01:57:09.164Z,17.01
2018-06-16T01:58:19.383Z,17.08
2018-06-16T01:59:29.544Z,17.06
2018-06-16T02:00:39.764Z,17.05
2018-06-16T02:01:50.010Z,16.99
2018-06-16T02:03:00.228Z,17.01
2018-06-16T02:04:10.392Z,17.05
2018-06-16T02:05:20.555Z,17.06
2018-06-16T02:06:30.688Z,17.01
2018-06-16T02:07:40.848Z,17.01
2018-06-16T02:08:50.992Z,16.98
2018-06-16T02:10:01.193Z,17.05
2018-06-16T02:11:11.485Z,16.99
2018-06-16T02:12:21.380Z,16.98
2018-06-16T02:13:31.584Z,17.01
2018-06-16T02:14:41.753Z,16.99
2018-06-16T02:15:52.127Z,17.05
2018-06-16T02:17:02.556Z,17.08
2018-06-16T02:18:12.727Z,17.02
2018-06-16T02:19:23.057Z,17.02
2018-06-16T02:20:33.207Z,17.14
2018-06-16T02:21:43.550Z,17.11
2018-06-16T02:22:53.686Z,16.98
2018-06-16T02:24:03.826Z,17.05
2018-06-16T02:25:13.974Z,17.08
2018-06-16T02:26:24.150Z,17.05
2018-06-16T02:27:34.364Z,17.04
2018-06-16T02:28:45.547Z,16.99
2018-06-16T02:29:55.713Z,17.04
2018-06-16T02:31:05.990Z,16.99
2018-06-16T02:32:16.194Z,16.91
2018-06-16T02:33:26.421Z,16.84
2018-06-16T02:34:36.654Z,16.87
2018-06-16T02:35:46.629Z,16.83
2018-06-16T02:36:56.778Z,16.83
2018-06-16T02:38:06.949Z,16.83
2018-06-16T02:39:17.187Z,16.75
2018-06-16T02:40:27.438Z,16.83
2018-06-16T02:41:37.612Z,16.79
2018-06-16T02:42:47.881Z,16.8
2018-06-16T02:43:58.037Z,16.8
2018-06-16T02:45:08.438Z,16.89
2018-06-16T02:46:18.578Z,16.84
2018-06-16T02:47:28.791Z,16.87
2018-06-16T02:48:38.920Z,16.94
2018-06-16T02:49:49.146Z,16.94
2018-06-16T02:50:59.310Z,16.93
2018-06-16T02:52:09.585Z,16.91
2018-06-16T02:53:19.996Z,16.9
2018-06-16T02:54:30.156Z,16.93
2018-06-16T02:55:40.295Z,16.93
2018-06-16T02:56:50.429Z,16.89
2018-06-16T02:58:00.661Z,16.91
2018-06-16T02:59:10.856Z,16.79
2018-06-16T03:00:21.101Z,16.9
2018-06-16T03:01:31.349Z,16.79
2018-06-16T03:02:41.762Z,16.82
2018-06-16T03:03:52.198Z,16.8
2018-06-16T03:05:02.537Z,16.76
2018-06-16T03:06:12.815Z,16.8
2018-06-16T03:07:22.605Z,16.79
2018-06-16T03:08:32.771Z,16.82
2018-06-16T03:09:42.928Z,16.79
2018-06-16T03:10:53.087Z,16.74
2018-06-16T03:12:03.372Z,16.79
2018-06-16T03:13:13.756Z,16.79
2018-06-16T03:14:23.894Z,16.87
2018-06-16T03:15:34.057Z,16.87
2018-06-16T03:16:44.205Z,16.87
2018-06-16T03:17:54.551Z,16.87
2018-06-16T03:19:04.693Z,16.87
2018-06-16T03:20:14.869Z,16.89
2018-06-16T03:21:25.083Z,16.87
2018-06-16T03:22:35.364Z,16.89
2018-06-16T03:23:45.571Z,16.93
2018-06-16T03:24:55.834Z,16.83
2018-06-16T03:26:06.030Z,16.76
2018-06-16T03:27:16.224Z,16.69
2018-06-16T03:28:26.394Z,16.69
2018-06-16T03:29:36.640Z,16.75
2018-06-16T03:30:46.835Z,16.76
2018-06-16T03:31:57.085Z,16.76
2018-06-16T03:33:07.528Z,16.76
2018-06-16T03:34:17.707Z,16.76
2018-06-16T03:35:27.875Z,16.79
2018-06-16T03:36:38.249Z,16.8
2018-06-16T03:37:48.390Z,16.76
2018-06-16T03:38:58.322Z,16.75
2018-06-16T03:40:08.630Z,16.71
2018-06-16T03:41:18.872Z,16.62
2018-06-16T03:42:29.023Z,16.74
2018-06-16T03:43:39.026Z,16.69
2018-06-16T03:44:49.171Z,16.65
2018-06-16T03:45:59.153Z,16.65
2018-06-16T03:47:09.378Z,16.57
2018-06-16T03:48:19.520Z,16.66
2018-06-16T03:49:29.668Z,16.56
2018-06-16T03:50:39.800Z,16.57
2018-06-16T03:51:49.948Z,16.64
2018-06-16T03:53:00.138Z,16.64
2018-06-16T03:54:10.290Z,16.56
2018-06-16T03:55:20.475Z,16.59
2018-06-16T03:56:30.843Z,16.53
2018-06-16T03:57:40.996Z,16.53
2018-06-16T03:58:51.187Z,16.54
2018-06-16T04:00:01.355Z,16.53
2018-06-16T04:01:11.513Z,16.51
2018-06-16T04:02:21.675Z,16.46
2018-06-16T04:03:31.825Z,16.51
2018-06-16T04:04:41.975Z,16.47
2018-06-16T04:05:52.181Z,16.5
2018-06-16T04:07:02.306Z,16.5
2018-06-16T04:08:12.484Z,16.38
2018-06-16T04:09:22.886Z,16.42
2018-06-16T04:10:33.028Z,16.44
2018-06-16T04:11:43.180Z,16.38
2018-06-16T04:12:53.379Z,16.35
2018-06-16T04:14:03.626Z,16.43
2018-06-16T04:15:13.834Z,16.44
2018-06-16T04:16:23.965Z,16.42
2018-06-16T04:17:34.130Z,16.42
2018-06-16T04:18:44.255Z,16.46
2018-06-16T04:19:54.378Z,16.38
2018-06-16T04:21:04.535Z,16.43
2018-06-16T04:22:14.729Z,16.44
2018-06-16T04:23:24.874Z,16.42
2018-06-16T04:24:35.006Z,16.53
2018-06-16T04:25:45.142Z,16.36
2018-06-16T04:26:55.306Z,16.51
2018-06-16T04:28:05.537Z,16.49
2018-06-16T04:29:15.688Z,16.47
2018-06-16T04:30:25.563Z,16.39
2018-06-16T04:31:35.701Z,16.43
2018-06-16T04:32:45.839Z,16.47
2018-06-16T04:33:56.061Z,16.38
2018-06-16T04:35:06.216Z,16.43
2018-06-16T04:36:16.377Z,16.43
2018-06-16T04:37:26.671Z,16.49
2018-06-16T04:38:36.883Z,16.47
2018-06-16T04:39:47.142Z,16.44
2018-06-16T04:40:57.312Z,16.53
2018-06-16T04:42:07.580Z,16.49
2018-06-16T04:43:17.755Z,16.59
2018-06-16T04:44:27.620Z,16.57
2018-06-16T04:45:38.075Z,16.56
2018-06-16T04:46:48.597Z,16.62
2018-06-16T04:47:59.278Z,16.66
2018-06-16T04:49:09.419Z,16.71
2018-06-16T04:50:19.660Z,16.74
2018-06-16T04:51:29.847Z,16.71
2018-06-16T04:52:39.994Z,16.72
2018-06-16T04:53:50.147Z,16.71
2018-06-16T04:55:00.333Z,16.8
2018-06-16T04:56:10.548Z,16.79
2018-06-16T04:57:20.719Z,16.87
2018-06-16T04:58:31.082Z,16.9
2018-06-16T04:59:41.355Z,16.93
2018-06-16T05:00:51.587Z,16.99
2018-06-16T05:02:01.786Z,16.98
2018-06-16T05:03:11.958Z,16.96
2018-06-16T05:04:22.104Z,17.02
2018-06-16T05:05:32.252Z,17.06
2018-06-16T05:06:42.411Z,17.19
2018-06-16T05:07:52.597Z,17.23
2018-06-16T05:09:02.721Z,17.27
2018-06-16T05:10:12.585Z,17.43
2018-06-16T05:11:22.709Z,17.45
2018-06-16T05:12:32.839Z,17.46
2018-06-16T05:13:43.072Z,17.55
2018-06-16T05:14:53.316Z,17.64
2018-06-16T05:16:03.495Z,17.65
2018-06-16T05:17:13.712Z,17.61
2018-06-16T05:18:23.861Z,17.7
2018-06-16T05:19:34.047Z,17.65
2018-06-16T05:20:44.401Z,17.73
2018-06-16T05:21:54.678Z,17.86
2018-06-16T05:23:05.038Z,17.83
2018-06-16T05:24:15.222Z,17.92
2018-06-16T05:25:25.348Z,17.98
2018-06-16T05:26:35.498Z,17.92
2018-06-16T05:27:45.763Z,17.95
2018-06-16T05:28:55.939Z,18.04
2018-06-16T05:30:06.081Z,18.13
2018-06-16T05:31:16.241Z,18.12
2018-06-16T05:32:26.182Z,18.05
2018-06-16T05:33:36.364Z,18.16
2018-06-16T05:34:46.528Z,18.25
2018-06-16T05:35:56.715Z,18.32
2018-06-16T05:37:06.954Z,18.25
2018-06-16T05:38:17.195Z,18.37
2018-06-16T05:39:27.475Z,18.4
2018-06-16T05:40:37.883Z,18.35
2018-06-16T05:41:48.036Z,18.4
2018-06-16T05:42:58.197Z,18.49
2018-06-16T05:44:08.584Z,18.55
2018-06-16T05:45:18.734Z,18.6
2018-06-16T05:46:28.895Z,18.67
2018-06-16T05:47:39.077Z,18.72
2018-06-16T05:48:49.324Z,18.67
2018-06-16T05:49:59.867Z,18.78
2018-06-16T05:51:10.031Z,18.8
2018-06-16T05:52:20.192Z,18.82
2018-06-16T05:53:30.326Z,18.87
2018-06-16T05:54:40.519Z,18.93
2018-06-16T05:55:50.654Z,18.84
2018-06-16T05:57:00.818Z,18.91
2018-06-16T05:58:11.076Z,18.87
2018-06-16T05:59:21.248Z,18.95
2018-06-16T06:00:31.585Z,18.9
2018-06-16T06:01:42.088Z,18.94
2018-06-16T06:02:52.245Z,18.95
2018-06-16T06:04:02.412Z,18.91
2018-06-16T06:05:12.599Z,18.91
2018-06-16T06:06:22.580Z,18.9
2018-06-16T06:07:32.782Z,18.87
2018-06-16T06:08:43.054Z,18.94
2018-06-16T06:09:53.221Z,19
2018-06-16T06:11:03.381Z,18.98
2018-06-16T06:12:13.552Z,18.97
2018-06-16T06:13:23.796Z,19
2018-06-16T06:14:34.032Z,19.02
2018-06-16T06:15:44.595Z,18.97
2018-06-16T06:16:55.077Z,19.08
2018-06-16T06:18:05.061Z,19.08
2018-06-16T06:19:15.001Z,19
2018-06-16T06:20:24.931Z,18.97
2018-06-16T06:21:35.100Z,19.15
2018-06-16T06:22:45.243Z,19.06
2018-06-16T06:23:55.401Z,19.16
2018-06-16T06:25:05.554Z,19.15
2018-06-16T06:26:15.831Z,19.13
2018-06-16T06:27:26.286Z,19.18
2018-06-16T06:28:36.465Z,19.25
2018-06-16T06:29:46.675Z,19.27
2018-06-16T06:30:56.866Z,19.39
2018-06-16T06:32:07.211Z,19.39
2018-06-16T06:33:17.595Z,19.48
2018-06-16T06:34:27.763Z,19.55
2018-06-16T06:35:37.575Z,19.52
2018-06-16T06:36:47.900Z,19.48
2018-06-16T06:37:58.061Z,19.56
2018-06-16T06:39:07.981Z,19.52
2018-06-16T06:40:18.108Z,19.53
2018-06-16T06:41:28.318Z,19.67
2018-06-16T06:42:38.506Z,19.63
2018-06-16T06:43:48.812Z,19.63
2018-06-16T06:44:59.006Z,19.63
2018-06-16T06:46:09.215Z,19.64
2018-06-16T06:47:19.408Z,19.65
2018-06-16T06:48:30.565Z,19.68
2018-06-16T06:49:40.823Z,19.46
2018-06-16T06:50:50.632Z,19.56
2018-06-16T06:52:00.806Z,19.56
2018-06-16T06:53:11.010Z,19.49
2018-06-16T06:54:21.175Z,19.58
2018-06-16T06:55:31.357Z,19.48
2018-06-16T06:56:41.561Z,19.43
2018-06-16T06:57:51.917Z,19.45
2018-06-16T06:59:02.284Z,19.37
2018-06-16T07:00:12.539Z,19.42
2018-06-16T07:01:22.731Z,19.42
2018-06-16T07:02:32.903Z,19.49
2018-06-16T07:03:43.102Z,19.5
2018-06-16T07:04:53.511Z,19.55
2018-06-16T07:06:03.880Z,19.58
2018-06-16T07:07:14.225Z,19.6
2018-06-16T07:08:24.383Z,19.65
2018-06-16T07:09:34.701Z,19.61
2018-06-16T07:10:45.193Z,19.71
2018-06-16T07:11:55.700Z,19.68
2018-06-16T07:13:05.619Z,19.82
2018-06-16T07:14:15.818Z,19.83
2018-06-16T07:15:26.061Z,19.85
2018-06-16T07:16:36.264Z,19.82
2018-06-16T07:17:46.548Z,19.83
2018-06-16T07:18:56.697Z,19.85
2018-06-16T07:20:06.854Z,19.93
2018-06-16T07:21:17.145Z,19.93
2018-06-16T07:22:27.406Z,20.04
2018-06-16T07:23:37.836Z,20.01
2018-06-16T07:24:47.751Z,20.08
2018-06-16T07:25:58.030Z,20.05
2018-06-16T07:27:08.435Z,20.14
2018-06-16T07:28:18.790Z,20.12
2018-06-16T07:29:29.128Z,20.19
2018-06-16T07:30:39.269Z,20.24
2018-06-16T07:31:49.501Z,20.24
2018-06-16T07:32:59.638Z,20.39
2018-06-16T07:34:09.808Z,20.46
2018-06-16T07:35:19.764Z,20.49
2018-06-16T07:36:29.937Z,20.54
2018-06-16T07:37:40.200Z,20.67
2018-06-16T07:38:50.660Z,20.66
2018-06-16T07:40:00.987Z,20.71
2018-06-16T07:41:11.226Z,20.72
2018-06-16T07:42:21.406Z,20.68
2018-06-16T07:43:31.573Z,20.75
2018-06-16T07:44:41.759Z,20.75
2018-06-16T07:45:52.183Z,20.78
2018-06-16T07:47:02.668Z,20.78
2018-06-16T07:48:12.983Z,20.86
2018-06-16T07:49:23.176Z,20.86
2018-06-16T07:50:33.379Z,20.98
2018-06-16T07:51:43.676Z,20.97
2018-06-16T07:52:53.868Z,21
2018-06-16T07:54:03.716Z,21.13
2018-06-16T07:55:13.863Z,21.09
2018-06-16T07:56:24.046Z,21.13
2018-06-16T07:57:34.185Z,21.15
2018-06-16T07:58:44.356Z,21.22
2018-06-16T07:59:54.516Z,21.27
2018-06-16T08:01:04.709Z,21.27
2018-06-16T08:02:14.872Z,21.33
2018-06-16T08:03:25.053Z,21.34
2018-06-16T08:04:35.213Z,21.41
2018-06-16T08:05:45.430Z,21.41
2018-06-16T08:06:55.641Z,21.56
2018-06-16T08:08:05.812Z,21.64
2018-06-16T08:09:16.043Z,21.57
2018-06-16T08:10:25.971Z,21.65
2018-06-16T08:11:36.305Z,21.73
2018-06-16T08:12:46.667Z,21.78
2018-06-16T08:13:56.943Z,21.78
2018-06-16T08:15:07.130Z,21.83
2018-06-16T08:16:17.305Z,21.88
2018-06-16T08:17:27.494Z,21.98
2018-06-16T08:18:37.677Z,22.05
2018-06-16T08:19:47.597Z,22.21
2018-06-16T08:20:57.785Z,22.27
2018-06-16T08:22:07.941Z,22.34
2018-06-16T08:23:18.123Z,22.46
2018-06-16T08:24:28.492Z,22.43
2018-06-16T08:25:38.453Z,22.57
2018-06-16T08:26:48.630Z,22.63
2018-06-16T08:27:58.798Z,22.63
2018-06-16T08:29:08.957Z,22.67
2018-06-16T08:30:19.122Z,22.67
2018-06-16T08:31:29.307Z,22.68
2018-06-16T08:32:39.693Z,22.76
2018-06-16T08:33:50.190Z,22.78
2018-06-16T08:35:00.361Z,22.82
2018-06-16T08:36:10.516Z,22.89
2018-06-16T08:37:20.747Z,23.02
2018-06-16T08:38:31.104Z,23.13
2018-06-16T08:39:41.275Z,23.09
2018-06-16T08:40:51.424Z,23.21
2018-06-16T08:42:01.629Z,23.33
2018-06-16T08:43:11.976Z,23.33
2018-06-16T08:44:22.729Z,23.39
2018-06-16T08:45:32.928Z,23.42
2018-06-16T08:46:43.100Z,23.35
2018-06-16T08:47:53.272Z,23.36
2018-06-16T08:49:03.739Z,23.28
2018-06-16T08:50:14.159Z,23.35
2018-06-16T08:51:24.518Z,23.35
2018-06-16T08:52:34.697Z,23.32
2018-06-16T08:53:44.870Z,23.27
2018-06-16T08:54:54.809Z,23.28
2018-06-16T08:56:04.979Z,23.31
2018-06-16T08:57:14.763Z,23.35
2018-06-16T08:58:24.932Z,23.48
2018-06-16T08:59:35.114Z,23.5
2018-06-16T09:00:45.395Z,23.61
2018-06-16T09:01:55.647Z,23.65
2018-06-16T09:03:05.876Z,23.57
2018-06-16T09:04:16.273Z,23.42
2018-06-16T09:05:26.510Z,23.42
2018-06-16T09:06:36.797Z,23.58
2018-06-16T09:07:47.201Z,23.53
2018-06-16T09:08:57.400Z,23.72
2018-06-16T09:10:07.634Z,23.69
2018-06-16T09:11:17.788Z,23.72
2018-06-16T09:12:27.959Z,23.82
2018-06-16T09:13:38.161Z,23.77
2018-06-16T09:14:48.388Z,23.95
2018-06-16T09:15:58.570Z,24
2018-06-16T09:17:08.990Z,23.76
2018-06-16T09:18:19.314Z,23.75
2018-06-16T09:19:29.554Z,23.69
2018-06-16T09:20:39.739Z,23.73
2018-06-16T09:21:50.077Z,23.72
2018-06-16T09:23:00.297Z,23.76
2018-06-16T09:24:10.557Z,23.8
2018-06-16T09:25:20.864Z,23.98
2018-06-16T09:26:30.760Z,24.01
2018-06-16T09:27:41.002Z,24.15
2018-06-16T09:28:51.178Z,24.32
2018-06-16T09:30:01.362Z,24.58
2018-06-16T09:31:11.765Z,24.73
2018-06-16T09:32:21.905Z,24.8
2018-06-16T09:33:32.058Z,24.85
2018-06-16T09:34:42.284Z,24.87
2018-06-16T09:35:52.454Z,24.95
2018-06-16T09:37:02.694Z,25.09
2018-06-16T09:38:12.916Z,25.22
2018-06-16T09:39:23.092Z,25.29
2018-06-16T09:40:33.284Z,25.4
2018-06-16T09:41:43.507Z,25.46
2018-06-16T09:42:53.324Z,25.55
2018-06-16T09:44:03.492Z,25.4
2018-06-16T09:45:13.686Z,25.27
2018-06-16T09:46:23.884Z,25.15
2018-06-16T09:47:34.077Z,25.03
2018-06-16T09:48:44.327Z,24.91
2018-06-16T09:49:54.511Z,24.88
2018-06-16T09:51:04.796Z,24.85
2018-06-16T09:52:15.254Z,24.78
2018-06-16T09:53:57.343Z,24.58
2018-06-16T09:55:07.513Z,24.6
2018-06-16T09:56:18.069Z,24.32
2018-06-16T09:57:28.275Z,24.16
2018-06-16T09:58:38.613Z,24.06
2018-06-16T09:59:48.827Z,23.98
2018-06-16T10:00:59.198Z,23.85
2018-06-16T10:02:09.561Z,23.8
2018-06-16T10:03:19.896Z,23.73
2018-06-16T10:04:30.532Z,23.55
2018-06-16T10:05:40.710Z,23.45
2018-06-16T10:06:50.882Z,23.39
2018-06-16T10:08:01.339Z,23.38
2018-06-16T10:09:11.592Z,23.25
2018-06-16T10:10:21.918Z,23.16
2018-06-16T10:11:31.936Z,23.16
2018-06-16T10:12:42.137Z,23.16
2018-06-16T10:13:52.372Z,23.18
2018-06-16T10:15:02.362Z,23.17
2018-06-16T10:16:12.560Z,23.27
2018-06-16T10:17:22.794Z,23.27
2018-06-16T10:18:33.042Z,23.33
2018-06-16T10:19:43.240Z,23.46
2018-06-16T10:20:53.462Z,23.5
2018-06-16T10:22:03.429Z,23.58
2018-06-16T10:23:13.626Z,23.69
2018-06-16T10:24:23.805Z,23.75
2018-06-16T10:25:34.018Z,23.91
2018-06-16T10:26:44.197Z,24
2018-06-16T10:27:54.426Z,24.1
2018-06-16T10:29:04.774Z,24.27
2018-06-16T10:30:15.175Z,24.35
2018-06-16T10:31:25.439Z,24.44
2018-06-16T10:32:35.252Z,24.6
2018-06-16T10:33:45.479Z,24.73
2018-06-16T10:34:55.695Z,24.82
2018-06-16T10:36:05.887Z,24.73
2018-06-16T10:37:16.104Z,24.84
2018-06-16T10:38:26.363Z,25.07
2018-06-16T10:39:36.633Z,25.17
2018-06-16T10:40:46.804Z,25.24
2018-06-16T10:41:57.046Z,25.31
2018-06-16T10:43:07.228Z,25.36
2018-06-16T10:44:18.393Z,25.74
2018-06-16T10:45:28.716Z,25.78
2018-06-16T10:46:38.895Z,25.92
2018-06-16T10:47:49.134Z,25.97
2018-06-16T10:48:59.106Z,25.97
2018-06-16T10:50:10.378Z,25.93
2018-06-16T10:51:20.635Z,25.87
2018-06-16T10:52:30.887Z,25.77
2018-06-16T10:53:41.132Z,25.84
2018-06-16T10:54:51.366Z,25.76
2018-06-16T10:56:01.591Z,25.81
2018-06-16T10:57:11.886Z,25.77
2018-06-16T10:58:22.089Z,25.78
2018-06-16T10:59:32.297Z,25.73
2018-06-16T11:00:42.582Z,25.73
2018-06-16T11:01:52.814Z,25.9
2018-06-16T11:03:03.049Z,25.97
2018-06-16T11:04:13.218Z,26.22
2018-06-16T11:05:23.425Z,26.4
2018-06-16T11:06:33.618Z,26.4
2018-06-16T11:07:43.825Z,26.34
2018-06-16T11:08:54.037Z,26.16
2018-06-16T11:10:04.241Z,26.11
2018-06-16T11:11:14.907Z,26.04
2018-06-16T11:12:25.255Z,26.24
2018-06-16T11:13:35.490Z,26.34
2018-06-16T11:14:45.802Z,26.55
2018-06-16T11:15:56.022Z,26.83
2018-06-16T11:17:06.213Z,27.05
2018-06-16T11:18:16.396Z,27.37
2018-06-16T11:19:26.957Z,27.71
2018-06-16T11:20:37.354Z,27.79
2018-06-16T11:21:47.571Z,27.71
2018-06-16T11:22:57.821Z,27.67
2018-06-16T11:24:08.249Z,27.58
2018-06-16T11:25:18.566Z,27.39
2018-06-16T11:26:28.802Z,27.24
2018-06-16T11:27:39.028Z,26.92
2018-06-16T11:28:49.262Z,26.96
2018-06-16T11:29:59.530Z,26.77
2018-06-16T11:31:09.792Z,26.88
2018-06-16T11:32:20.151Z,26.92
2018-06-16T11:33:30.381Z,26.99
2018-06-16T11:34:40.834Z,27.24
2018-06-16T11:35:51.144Z,27.34
2018-06-16T11:37:01.389Z,27.46
2018-06-16T11:38:43.454Z,27.74
2018-06-16T11:39:53.643Z,27.89
2018-06-16T11:41:03.873Z,28.05
2018-06-16T11:42:14.063Z,28.32
2018-06-16T11:43:24.231Z,28.53
2018-06-16T11:44:34.653Z,28.92
2018-06-16T11:45:44.923Z,29.02
2018-06-16T11:46:55.132Z,29.2
2018-06-16T11:48:05.506Z,29.26
2018-06-16T11:49:15.840Z,29.14
2018-06-16T11:50:26.061Z,29.03
2018-06-16T11:51:36.349Z,29.03
2018-06-16T11:52:46.554Z,28.99
2018-06-16T11:53:56.556Z,28.79
2018-06-16T11:55:06.886Z,28.84
2018-06-16T11:56:17.134Z,28.84
2018-06-16T11:57:27.343Z,28.94
2018-06-16T11:58:37.670Z,28.94
2018-06-16T11:59:47.906Z,28.95
2018-06-16T12:00:58.146Z,28.7
2018-06-16T12:02:08.365Z,28.77
2018-06-16T12:03:18.601Z,28.69
2018-06-16T12:04:28.795Z,28.38
2018-06-16T12:05:39.203Z,28.31
2018-06-16T12:06:49.482Z,28.19
2018-06-16T12:07:59.677Z,28.19
2018-06-16T12:09:09.871Z,28.02
2018-06-16T12:10:20.252Z,27.86
2018-06-16T12:11:31.571Z,27.74
2018-06-16T12:12:41.777Z,27.72
2018-06-16T12:13:52.004Z,27.74
2018-06-16T12:15:02.271Z,27.72
2018-06-16T12:16:12.508Z,27.77
2018-06-16T12:17:22.998Z,27.9
2018-06-16T12:18:33.211Z,27.94
2018-06-16T12:19:43.426Z,28.02
2018-06-16T12:20:53.649Z,28
2018-06-16T12:22:03.958Z,28.01
2018-06-16T12:23:14.207Z,27.95
2018-06-16T12:24:24.426Z,28.01
2018-06-16T12:25:34.646Z,28
2018-06-16T12:26:44.987Z,28.05
2018-06-16T12:27:55.351Z,28.13
2018-06-16T12:29:05.662Z,28.05
2018-06-16T12:30:15.909Z,27.98
2018-06-16T12:31:25.843Z,28.02
2018-06-16T12:32:36.039Z,27.89
2018-06-16T12:33:46.461Z,27.74
2018-06-16T12:34:56.688Z,27.79
2018-06-16T12:36:07.019Z,27.57
2018-06-16T12:37:17.226Z,27.31
2018-06-16T12:38:27.683Z,27.27
2018-06-16T12:39:38.217Z,27.27
2018-06-16T12:40:48.424Z,27.35
2018-06-16T12:41:58.668Z,27.45
2018-06-16T12:43:08.891Z,27.57
2018-06-16T12:44:19.076Z,27.7
2018-06-16T12:45:29.271Z,27.86
2018-06-16T12:46:39.575Z,27.95
2018-06-16T12:47:49.850Z,28.07
2018-06-16T12:49:00.041Z,28.08
2018-06-16T12:50:10.327Z,27.95
2018-06-16T12:51:20.505Z,27.87
2018-06-16T12:52:30.722Z,27.8
2018-06-16T12:53:40.945Z,27.72
2018-06-16T12:54:51.149Z,27.52
2018-06-16T12:56:01.382Z,27.37
2018-06-16T12:57:11.604Z,27.17
2018-06-16T12:58:23.166Z,27.04
2018-06-16T12:59:33.408Z,26.98
2018-06-16T13:00:43.653Z,26.88
2018-06-16T13:01:54.675Z,26.82
2018-06-16T13:03:04.886Z,26.82
2018-06-16T13:04:15.157Z,26.74
2018-06-16T13:05:25.535Z,26.73
2018-06-16T13:06:35.730Z,26.66
2018-06-16T13:07:45.955Z,26.55
2018-06-16T13:08:56.148Z,26.45
2018-06-16T13:10:06.339Z,26.43
2018-06-16T13:11:16.550Z,26.39
2018-06-16T13:12:26.835Z,26.33
2018-06-16T13:13:37.174Z,26.33
2018-06-16T13:14:47.514Z,26.18
2018-06-16T13:15:57.707Z,26.19
2018-06-16T13:17:07.940Z,26.27
2018-06-16T13:18:18.311Z,26.3
2018-06-16T13:19:28.329Z,26.39
2018-06-16T13:20:38.900Z,26.46
2018-06-16T13:21:49.152Z,26.53
2018-06-16T13:22:59.380Z,26.68
2018-06-16T13:24:09.598Z,26.64
2018-06-16T13:25:19.811Z,26.58
2018-06-16T13:26:30.033Z,26.49
2018-06-16T13:27:40.226Z,26.34
2018-06-16T13:28:50.466Z,26.29
2018-06-16T13:30:00.841Z,26.15
2018-06-16T13:31:11.037Z,26.12
2018-06-16T13:32:21.256Z,26.11
2018-06-16T13:33:31.772Z,25.94
2018-06-16T13:34:41.980Z,25.77
2018-06-16T13:35:52.183Z,25.65
2018-06-16T13:37:02.372Z,25.54
2018-06-16T13:38:12.564Z,25.39
2018-06-16T13:39:22.528Z,25.32
2018-06-16T13:40:32.774Z,25.34
2018-06-16T13:41:42.961Z,25.29
2018-06-16T13:42:53.565Z,25.36
2018-06-16T13:44:03.783Z,25.42
2018-06-16T13:45:14.261Z,25.46
2018-06-16T13:46:24.453Z,25.46
2018-06-16T13:47:34.644Z,25.44
2018-06-16T13:48:45.157Z,25.44
2018-06-16T13:49:55.568Z,25.5
2018-06-16T13:51:05.785Z,25.56
2018-06-16T13:52:15.780Z,25.65
2018-06-16T13:53:27.012Z,25.64
2018-06-16T13:54:37.313Z,25.76
2018-06-16T13:55:47.519Z,25.77
2018-06-16T13:56:57.748Z,25.94
2018-06-16T13:58:07.941Z,26.06
2018-06-16T13:59:17.915Z,26.07
2018-06-16T14:00:28.310Z,26.14
2018-06-16T14:01:38.830Z,26.24
2018-06-16T14:02:49.028Z,26.34
2018-06-16T14:03:59.224Z,26.29
2018-06-16T14:05:09.441Z,26.29
2018-06-16T14:06:19.923Z,26.33
2018-06-16T14:07:30.150Z,26.29
2018-06-16T14:08:40.359Z,26.37
2018-06-16T14:09:50.618Z,26.4
2018-06-16T14:11:00.829Z,26.46
2018-06-16T14:12:11.039Z,26.45
2018-06-16T14:13:21.034Z,26.41
2018-06-16T14:14:31.298Z,26.39
2018-06-16T14:15:41.614Z,26.45
2018-06-16T14:16:51.913Z,26.52
2018-06-16T14:18:02.199Z,26.62
2018-06-16T14:19:12.456Z,26.74
2018-06-16T14:20:22.668Z,26.8
2018-06-16T14:21:32.883Z,26.74
2018-06-16T14:22:43.196Z,26.78
2018-06-16T14:23:52.800Z,26.9
2018-06-16T14:25:03.133Z,26.88
2018-06-16T14:26:13.352Z,26.93
2018-06-16T14:27:23.902Z,26.96
2018-06-16T14:28:37.883Z,26.93
2018-06-16T14:29:47.846Z,26.83
2018-06-16T14:30:58.108Z,26.68
2018-06-16T14:32:08.344Z,26.67
2018-06-16T14:33:18.253Z,26.55
2018-06-16T14:34:28.457Z,26.41
2018-06-16T14:35:38.640Z,26.39
2018-06-16T14:36:48.892Z,26.33
2018-06-16T14:37:59.085Z,26.33
2018-06-16T14:39:09.275Z,26.25
2018-06-16T14:40:19.499Z,26.25
2018-06-16T14:41:29.716Z,26.16
2018-06-16T14:42:40.128Z,26.04
2018-06-16T14:43:50.567Z,26.12
2018-06-16T14:45:00.783Z,26
2018-06-16T14:46:11.027Z,26.12
2018-06-16T14:47:21.409Z,26.06
2018-06-16T14:48:31.614Z,26.12
2018-06-16T14:49:41.810Z,26.07
2018-06-16T14:50:51.997Z,26
2018-06-16T14:52:02.181Z,26.02
2018-06-16T14:53:12.355Z,25.92
2018-06-16T14:54:22.582Z,25.97
2018-06-16T14:55:33.043Z,25.99
2018-06-16T14:56:43.252Z,25.99
2018-06-16T14:57:53.503Z,26
2018-06-16T14:59:04.790Z,25.97
2018-06-16T15:00:15.019Z,26.11
2018-06-16T15:01:25.321Z,26.15
2018-06-16T15:02:35.534Z,26.21
2018-06-16T15:03:45.711Z,26.11
2018-06-16T15:04:56.456Z,26.19
2018-06-16T15:06:07.617Z,26.12
2018-06-16T15:07:17.546Z,26.11
2018-06-16T15:08:27.755Z,26.11